Time;durP1;ratioP1;P1;durP2;ratioP2;P2;SDS_P1;SDS_P2;PMS_P1;PMS_P2;Temp;Humidity;BMP_temperature;BMP_pressure;BME280_temperature;BME280_humidity;BME280_pressure;Samples;Min_cycle;Max_cycle;Signal;HPM_P1;HPM_P2
2024/01/02 00:02:18;;;;;;;10.80;3.07;;;;;;;;;;4971997;28;20651;-69
2024/01/02 00:04:43;;;;;;;10.90;2.30;;;;;;;;;;4982703;28;20615;-69
2024/01/02 00:07:08;;;;;;;20.90;5.13;;;;;;;;;;4975533;28;20278;-69
2024/01/02 00:09:34;;;;;;;8.43;2.20;;;;;;;;;;4984226;28;20185;-67
2024/01/02 00:11:59;;;;;;;14.23;2.40;;;;;;;;;;4980944;28;20203;-69
2024/01/02 00:14:28;;;;;;;8.00;2.43;;;;;;;;;;4983953;28;20698;-68
2024/01/02 00:16:53;;;;;;;10.50;2.83;;;;;;;;;;4983126;28;20222;-68
2024/01/02 00:19:18;;;;;;;10.07;2.90;;;;;;;;;;4984487;28;20206;-67
2024/01/02 00:21:43;;;;;;;13.27;2.60;;;;;;;;;;4985039;28;20710;-66
2024/01/02 00:24:09;;;;;;;11.60;3.33;;;;;;;;;;4966351;28;20183;-68
2024/01/02 00:26:34;;;;;;;10.77;2.37;;;;;;;;;;4984751;28;20211;-68
2024/01/02 00:29:00;;;;;;;7.13;2.53;;;;;;;;;;4984157;28;20180;-68
2024/01/02 00:31:25;;;;;;;10.93;2.43;;;;;;;;;;4983618;28;20208;-68
2024/01/02 00:33:50;;;;;;;9.23;2.73;;;;;;;;;;4974507;28;20198;-68
2024/01/02 00:36:15;;;;;;;13.97;3.20;;;;;;;;;;4982944;28;20308;-67
2024/01/02 00:38:40;;;;;;;8.97;2.40;;;;;;;;;;4982888;28;20179;-68
2024/01/02 00:41:06;;;;;;;6.77;2.10;;;;;;;;;;4955662;28;20179;-67
2024/01/02 00:43:31;;;;;;;8.17;2.27;;;;;;;;;;4970315;28;20192;-68
2024/01/02 00:45:57;;;;;;;8.30;2.37;;;;;;;;;;4971870;28;20220;-68
2024/01/02 00:48:22;;;;;;;7.33;2.10;;;;;;;;;;4957703;28;20197;-67
2024/01/02 00:50:47;;;;;;;7.80;2.60;;;;;;;;;;4983929;28;20167;-68
2024/01/02 00:53:12;;;;;;;5.07;1.87;;;;;;;;;;4982582;28;20214;-68
2024/01/02 00:55:37;;;;;;;10.67;2.57;;;;;;;;;;4983231;28;20191;-69
2024/01/02 00:58:03;;;;;;;6.80;2.30;;;;;;;;;;4987015;28;20566;-69
2024/01/02 01:00:28;;;;;;;5.43;2.40;;;;;;;;;;4984912;28;20184;-68
2024/01/02 01:02:54;;;;;;;10.53;2.23;;;;;;;;;;4982880;28;20219;-69
2024/01/02 01:05:19;;;;;;;7.07;1.70;;;;;;;;;;4962975;28;20215;-68
2024/01/02 01:07:44;;;;;;;4.37;2.00;;;;;;;;;;4978926;28;20188;-68
2024/01/02 01:10:10;;;;;;;5.77;2.40;;;;;;;;;;4966614;28;20184;-68
2024/01/02 01:12:36;;;;;;;5.00;1.80;;;;;;;;;;4983381;28;20207;-68
2024/01/02 01:15:01;;;;;;;5.03;2.23;;;;;;;;;;4982427;28;20208;-68
2024/01/02 01:17:26;;;;;;;3.23;1.33;;;;;;;;;;4982714;28;20172;-71
2024/01/02 01:19:51;;;;;;;5.83;1.87;;;;;;;;;;4984184;28;20176;-68
2024/01/02 01:22:17;;;;;;;8.47;2.07;;;;;;;;;;4989641;28;20232;-70
2024/01/02 01:24:42;;;;;;;4.47;2.23;;;;;;;;;;4991111;28;20203;-68
2024/01/02 01:27:07;;;;;;;6.17;1.73;;;;;;;;;;4988211;28;20194;-69
2024/01/02 01:29:32;;;;;;;7.90;1.40;;;;;;;;;;4986920;28;20210;-69
2024/01/02 01:31:58;;;;;;;6.33;2.40;;;;;;;;;;4985997;28;20294;-68
2024/01/02 01:34:23;;;;;;;6.60;2.33;;;;;;;;;;4989750;28;20172;-69
2024/01/02 01:36:48;;;;;;;4.70;1.63;;;;;;;;;;4965410;28;20651;-69
2024/01/02 01:39:13;;;;;;;2.73;1.00;;;;;;;;;;4989727;28;20179;-68
2024/01/02 01:41:39;;;;;;;3.43;1.60;;;;;;;;;;4993163;28;20262;-68
2024/01/02 01:44:04;;;;;;;3.70;1.37;;;;;;;;;;4992725;28;20664;-68
2024/01/02 01:46:39;;;;;;;2.20;1.10;;;;;;;;;;4991592;28;20797;-68
2024/01/02 01:49:08;;;;;;;1.77;0.73;;;;;;;;;;4989895;28;20612;-67
2024/01/02 01:51:34;;;;;;;4.77;1.40;;;;;;;;;;4991151;28;20207;-68
2024/01/02 01:54:00;;;;;;;5.60;1.23;;;;;;;;;;4988319;28;20678;-68
2024/01/02 01:56:25;;;;;;;4.20;1.03;;;;;;;;;;4987830;28;20557;-68
2024/01/02 01:58:51;;;;;;;3.87;1.37;;;;;;;;;;4971877;28;20187;-69
2024/01/02 02:01:16;;;;;;;3.27;1.50;;;;;;;;;;4990258;28;20683;-69
2024/01/02 02:03:41;;;;;;;3.47;1.00;;;;;;;;;;4991679;28;20557;-69
2024/01/02 02:06:06;;;;;;;1.73;1.03;;;;;;;;;;5048766;23;20243;-68
2024/01/02 02:08:32;;;;;;;2.63;1.13;;;;;;;;;;5043596;28;20209;-69
2024/01/02 02:10:57;;;;;;;3.90;1.30;;;;;;;;;;5050250;28;20190;-69
2024/01/02 02:13:23;;;;;;;2.50;0.80;;;;;;;;;;5054525;28;20186;-69
2024/01/02 02:15:49;;;;;;;2.10;0.70;;;;;;;;;;5032077;28;20194;-70
2024/01/02 02:18:14;;;;;;;1.10;0.93;;;;;;;;;;5038587;28;20185;-70
2024/01/02 02:20:39;;;;;;;3.73;1.40;;;;;;;;;;5024879;28;20191;-70
2024/01/02 02:23:04;;;;;;;1.17;0.80;;;;;;;;;;5031204;28;20194;-69
2024/01/02 02:25:29;;;;;;;1.53;1.10;;;;;;;;;;5030375;28;20214;-69
2024/01/02 02:27:55;;;;;;;0.83;0.50;;;;;;;;;;5031695;28;20190;-69
2024/01/02 02:30:20;;;;;;;1.90;1.23;;;;;;;;;;5033752;28;20239;-70
2024/01/02 02:32:45;;;;;;;1.80;1.30;;;;;;;;;;5030784;28;20198;-70
2024/01/02 02:35:10;;;;;;;1.03;0.67;;;;;;;;;;5030703;28;20198;-70
2024/01/02 02:37:36;;;;;;;1.40;0.80;;;;;;;;;;5029411;28;20174;-70
2024/01/02 02:40:01;;;;;;;2.77;0.77;;;;;;;;;;5030266;28;20178;-71
2024/01/02 02:42:26;;;;;;;1.00;0.83;;;;;;;;;;5028165;28;20623;-71
2024/01/02 02:44:51;;;;;;;2.10;0.87;;;;;;;;;;5030386;28;20174;-70
2024/01/02 02:47:17;;;;;;;1.33;1.03;;;;;;;;;;5030545;28;20177;-70
2024/01/02 02:49:42;;;;;;;5.03;1.10;;;;;;;;;;5033460;28;20174;-70
2024/01/02 02:52:07;;;;;;;4.60;1.10;;;;;;;;;;5012354;28;20201;-70
2024/01/02 02:54:32;;;;;;;2.40;1.00;;;;;;;;;;5033759;28;20181;-70
2024/01/02 02:56:58;;;;;;;0.70;0.70;;;;;;;;;;5032084;28;20201;-70
2024/01/02 02:59:23;;;;;;;3.03;1.03;;;;;;;;;;5037025;28;20184;-70
2024/01/02 03:01:48;;;;;;;1.07;0.73;;;;;;;;;;5009701;28;20183;-71
2024/01/02 03:04:13;;;;;;;0.70;0.57;;;;;;;;;;5026949;28;20236;-71
2024/01/02 03:06:39;;;;;;;3.30;0.70;;;;;;;;;;5029699;28;20263;-70
2024/01/02 03:09:04;;;;;;;2.67;0.57;;;;;;;;;;5032759;28;20656;-71
2024/01/02 03:11:29;;;;;;;1.17;0.60;;;;;;;;;;5035392;28;20222;-69
2024/01/02 03:13:54;;;;;;;1.67;0.70;;;;;;;;;;5035419;28;20224;-72
2024/01/02 03:16:20;;;;;;;2.63;0.73;;;;;;;;;;5019316;28;20193;-71
2024/01/02 03:18:45;;;;;;;1.13;0.60;;;;;;;;;;5031316;28;20181;-71
2024/01/02 03:21:13;;;;;;;0.73;0.50;;;;;;;;;;5022610;28;20178;-71
2024/01/02 03:23:38;;;;;;;0.70;0.40;;;;;;;;;;5022376;28;20780;-72
2024/01/02 03:26:04;;;;;;;0.57;0.50;;;;;;;;;;5034369;28;20198;-69
2024/01/02 03:28:30;;;;;;;1.00;0.50;;;;;;;;;;5031084;28;20170;-70
2024/01/02 03:30:56;;;;;;;1.30;0.43;;;;;;;;;;5027636;28;20264;-71
2024/01/02 03:33:21;;;;;;;0.63;0.50;;;;;;;;;;5028337;28;20228;-70
2024/01/02 03:35:47;;;;;;;0.60;0.60;;;;;;;;;;5033897;28;20203;-70
2024/01/02 03:38:12;;;;;;;0.67;0.40;;;;;;;;;;5015612;28;20182;-71
2024/01/02 03:40:37;;;;;;;1.67;0.80;;;;;;;;;;5020992;28;20497;-71
2024/01/02 03:43:03;;;;;;;0.80;0.80;;;;;;;;;;5017699;28;20186;-70
2024/01/02 03:45:28;;;;;;;0.83;0.70;;;;;;;;;;5016565;28;20217;-71
2024/01/02 03:47:53;;;;;;;1.40;0.80;;;;;;;;;;5027492;28;20181;-71
2024/01/02 03:50:19;;;;;;;0.80;0.80;;;;;;;;;;5014275;28;20236;-71
2024/01/02 03:52:44;;;;;;;0.50;0.50;;;;;;;;;;5030435;28;20798;-71
2024/01/02 03:55:09;;;;;;;0.40;0.40;;;;;;;;;;5034973;28;20588;-69
2024/01/02 03:57:35;;;;;;;3.20;0.50;;;;;;;;;;5027463;28;20658;-71
2024/01/02 04:00:00;;;;;;;0.50;0.50;;;;;;;;;;5035686;28;20186;-70
2024/01/02 04:02:25;;;;;;;0.63;0.50;;;;;;;;;;5028186;28;20657;-70
2024/01/02 04:04:51;;;;;;;0.80;0.60;;;;;;;;;;5025348;28;20217;-70
2024/01/02 04:07:16;;;;;;;1.10;0.93;;;;;;;;;;5013009;28;20192;-70
2024/01/02 04:09:41;;;;;;;0.63;0.60;;;;;;;;;;5029882;28;20276;-70
2024/01/02 04:12:07;;;;;;;1.13;0.80;;;;;;;;;;5028142;28;20206;-70
2024/01/02 04:14:32;;;;;;;1.17;0.77;;;;;;;;;;5035187;28;20184;-70
2024/01/02 04:16:57;;;;;;;0.60;0.60;;;;;;;;;;5011974;28;20208;-70
2024/01/02 04:19:22;;;;;;;0.60;0.60;;;;;;;;;;5033247;28;20178;-70
2024/01/02 04:21:47;;;;;;;1.30;0.80;;;;;;;;;;5014153;28;20808;-71
2024/01/02 04:24:14;;;;;;;1.50;0.80;;;;;;;;;;5030860;28;20182;-70
2024/01/02 04:26:39;;;;;;;1.10;1.00;;;;;;;;;;5030414;28;20205;-70
2024/01/02 04:29:04;;;;;;;0.73;0.70;;;;;;;;;;5019773;28;20179;-70
2024/01/02 04:31:29;;;;;;;0.70;0.60;;;;;;;;;;5026145;28;20227;-70
2024/01/02 04:33:55;;;;;;;0.93;0.70;;;;;;;;;;5011944;28;20187;-70
2024/01/02 04:36:20;;;;;;;0.73;0.70;;;;;;;;;;5028568;28;20607;-70
2024/01/02 04:38:45;;;;;;;1.97;1.13;;;;;;;;;;5029142;28;20197;-70
2024/01/02 04:41:12;;;;;;;0.80;0.80;;;;;;;;;;5030188;28;20196;-70
2024/01/02 04:43:38;;;;;;;0.73;0.67;;;;;;;;;;5011802;28;20663;-70
2024/01/02 04:46:03;;;;;;;1.30;1.13;;;;;;;;;;5027922;28;20313;-70
2024/01/02 04:48:28;;;;;;;1.60;1.20;;;;;;;;;;5022621;28;20171;-71
2024/01/02 04:50:54;;;;;;;0.93;0.80;;;;;;;;;;5028353;28;20221;-71
2024/01/02 04:53:19;;;;;;;1.20;0.90;;;;;;;;;;5027986;28;20285;-69
2024/01/02 04:55:44;;;;;;;1.10;1.00;;;;;;;;;;5029089;28;20201;-69
2024/01/02 04:58:09;;;;;;;1.50;1.40;;;;;;;;;;5017201;28;20554;-71
2024/01/02 05:00:34;;;;;;;1.70;1.60;;;;;;;;;;5034756;28;20174;-70
2024/01/02 05:03:00;;;;;;;1.93;1.67;;;;;;;;;;5023537;28;20237;-70
2024/01/02 05:05:25;;;;;;;2.67;2.20;;;;;;;;;;5030499;28;20218;-70
2024/01/02 05:07:51;;;;;;;2.00;1.80;;;;;;;;;;5033949;28;20190;-70
2024/01/02 05:10:16;;;;;;;2.13;1.93;;;;;;;;;;5035661;28;20186;-69
2024/01/02 05:12:41;;;;;;;2.23;2.03;;;;;;;;;;5040979;28;20198;-69
2024/01/02 05:15:07;;;;;;;2.83;2.17;;;;;;;;;;5022641;28;20202;-69
2024/01/02 05:17:32;;;;;;;2.63;2.20;;;;;;;;;;5018604;28;20175;-71
2024/01/02 05:19:57;;;;;;;2.10;1.90;;;;;;;;;;5039499;28;20217;-70
2024/01/02 05:22:22;;;;;;;1.80;1.60;;;;;;;;;;5029697;28;20178;-70
2024/01/02 05:24:48;;;;;;;3.00;1.67;;;;;;;;;;5034305;28;20210;-68
2024/01/02 05:27:14;;;;;;;1.57;1.43;;;;;;;;;;5032498;28;20216;-69
2024/01/02 05:29:39;;;;;;;2.90;1.83;;;;;;;;;;5017790;28;20171;-69
2024/01/02 05:32:05;;;;;;;2.40;1.77;;;;;;;;;;5034077;28;20210;-69
2024/01/02 05:34:30;;;;;;;2.83;1.60;;;;;;;;;;5033766;28;20564;-72
2024/01/02 05:36:55;;;;;;;1.57;1.47;;;;;;;;;;5035707;28;20658;-69
2024/01/02 05:39:21;;;;;;;2.37;1.80;;;;;;;;;;5035880;28;20667;-69
2024/01/02 05:41:46;;;;;;;2.50;1.90;;;;;;;;;;5033908;28;20578;-69
2024/01/02 05:44:11;;;;;;;1.85;1.52;;;;;;;;;;5023781;28;20260;-70
2024/01/02 05:46:36;;;;;;;4.25;2.20;;;;;;;;;;5033951;28;20201;-70
2024/01/02 05:49:02;;;;;;;2.30;1.92;;;;;;;;;;5037359;28;20182;-70
2024/01/02 05:51:27;;;;;;;3.05;2.50;;;;;;;;;;5032795;28;20213;-70
2024/01/02 05:53:52;;;;;;;4.55;2.42;;;;;;;;;;5030268;28;20197;-70
2024/01/02 05:56:18;;;;;;;6.70;3.05;;;;;;;;;;5035331;28;20328;-69
2024/01/02 05:58:43;;;;;;;7.35;4.10;;;;;;;;;;5033171;28;20175;-70
2024/01/02 06:01:08;;;;;;;5.72;2.88;;;;;;;;;;5016242;28;20265;-69
2024/01/02 06:03:33;;;;;;;7.20;2.63;;;;;;;;;;5035453;28;20185;-70
2024/01/02 06:05:59;;;;;;;10.98;3.88;;;;;;;;;;5034750;28;20303;-70
2024/01/02 06:08:24;;;;;;;8.18;4.13;;;;;;;;;;5030592;28;20170;-70
2024/01/02 06:10:49;;;;;;;5.55;2.55;;;;;;;;;;5030644;28;20277;-70
2024/01/02 06:13:14;;;;;;;11.32;3.35;;;;;;;;;;5031451;28;20588;-71
2024/01/02 06:15:40;;;;;;;19.27;4.22;;;;;;;;;;5032234;28;20202;-70
2024/01/02 06:18:06;;;;;;;11.20;3.28;;;;;;;;;;5016157;28;20618;-69
2024/01/02 06:20:31;;;;;;;10.45;2.58;;;;;;;;;;5031789;28;20692;-69
2024/01/02 06:22:56;;;;;;;18.50;3.72;;;;;;;;;;5000624;28;20179;-69
2024/01/02 06:25:21;;;;;;;19.20;4.25;;;;;;;;;;5029592;28;20618;-71
2024/01/02 06:27:47;;;;;;;13.27;3.20;;;;;;;;;;5028111;28;20433;-70
2024/01/02 06:30:12;;;;;;;16.67;2.78;;;;;;;;;;5031435;28;20353;-69
2024/01/02 06:32:37;;;;;;;17.13;4.85;;;;;;;;;;5011162;28;20268;-68
2024/01/02 06:35:03;;;;;;;11.27;3.25;;;;;;;;;;5029035;28;20692;-69
2024/01/02 06:37:28;;;;;;;17.13;3.65;;;;;;;;;;5030021;28;20174;-70
2024/01/02 06:39:53;;;;;;;20.52;3.58;;;;;;;;;;5029079;28;20707;-70
2024/01/02 06:42:18;;;;;;;22.05;3.35;;;;;;;;;;5017398;28;20192;-70
2024/01/02 06:44:44;;;;;;;15.73;3.78;;;;;;;;;;5029017;28;20551;-69
2024/01/02 06:47:09;;;;;;;16.90;2.88;;;;;;;;;;5017092;28;20321;-70
2024/01/02 06:49:34;;;;;;;16.17;3.42;;;;;;;;;;5028046;28;20556;-69
2024/01/02 06:51:59;;;;;;;19.95;4.40;;;;;;;;;;5030084;28;20594;-69
2024/01/02 06:54:25;;;;;;;22.15;3.38;;;;;;;;;;5030030;28;20205;-69
2024/01/02 06:56:50;;;;;;;19.27;3.47;;;;;;;;;;5028241;28;20213;-69
2024/01/02 06:59:15;;;;;;;23.40;4.70;;;;;;;;;;5030072;28;20237;-70
2024/01/02 07:01:40;;;;;;;23.90;4.53;;;;;;;;;;5030189;28;20200;-70
2024/01/02 07:04:05;;;;;;;22.48;4.43;;;;;;;;;;5029732;28;20204;-70
2024/01/02 07:06:31;;;;;;;21.50;5.78;;;;;;;;;;5026499;28;20245;-70
2024/01/02 07:08:56;;;;;;;28.55;4.32;;;;;;;;;;5010212;28;20190;-70
2024/01/02 07:11:21;;;;;;;22.00;4.60;;;;;;;;;;5029722;28;20186;-69
2024/01/02 07:13:46;;;;;;;24.25;4.32;;;;;;;;;;5027095;28;20713;-69
2024/01/02 07:16:12;;;;;;;26.50;4.78;;;;;;;;;;5023015;28;20213;-70
2024/01/02 07:18:38;;;;;;;16.45;4.45;;;;;;;;;;5028872;28;20178;-69
2024/01/02 07:21:03;;;;;;;23.27;5.15;;;;;;;;;;5012800;28;20275;-69
2024/01/02 07:23:28;;;;;;;34.40;5.75;;;;;;;;;;5030054;28;20178;-69
2024/01/02 07:25:54;;;;;;;18.00;4.35;;;;;;;;;;5026656;28;20209;-68
2024/01/02 07:28:19;;;;;;;15.95;3.78;;;;;;;;;;5028960;28;20194;-69
2024/01/02 07:30:47;;;;;;;23.08;4.07;;;;;;;;;;5030123;28;20204;-68
2024/01/02 07:33:13;;;;;;;22.20;4.75;;;;;;;;;;5027484;28;20234;-69
2024/01/02 07:35:38;;;;;;;21.95;4.07;;;;;;;;;;5029511;28;20232;-68
2024/01/02 07:38:03;;;;;;;20.85;4.05;;;;;;;;;;5028311;28;20261;-68
2024/01/02 07:40:28;;;;;;;15.18;4.25;;;;;;;;;;5028825;28;20263;-68
2024/01/02 07:42:54;;;;;;;23.85;4.47;;;;;;;;;;5029897;28;20194;-70
2024/01/02 07:45:19;;;;;;;23.63;4.38;;;;;;;;;;5030113;28;20285;-69
2024/01/02 07:47:44;;;;;;;15.68;4.45;;;;;;;;;;5027525;28;20720;-69
2024/01/02 07:50:09;;;;;;;17.55;4.15;;;;;;;;;;5027468;28;20189;-69
2024/01/02 07:52:34;;;;;;;23.48;3.58;;;;;;;;;;5030681;28;20201;-69
2024/01/02 07:55:00;;;;;;;22.88;3.58;;;;;;;;;;5029693;28;20209;-68
2024/01/02 07:57:25;;;;;;;21.73;3.78;;;;;;;;;;5028310;28;20174;-69
2024/01/02 07:59:50;;;;;;;23.58;3.50;;;;;;;;;;5018316;28;20188;-69
2024/01/02 08:02:15;;;;;;;25.63;5.10;;;;;;;;;;5027417;28;20182;-70
2024/01/02 08:04:41;;;;;;;20.30;4.47;;;;;;;;;;5028873;28;20485;-69
2024/01/02 08:07:06;;;;;;;21.45;4.47;;;;;;;;;;5039090;23;20579;-71
2024/01/02 08:09:32;;;;;;;25.40;4.30;;;;;;;;;;5020318;28;20177;-72
2024/01/02 08:11:57;;;;;;;24.30;4.35;;;;;;;;;;5024668;28;20235;-71
2024/01/02 08:14:22;;;;;;;20.55;4.00;;;;;;;;;;5025613;28;20182;-70
2024/01/02 08:16:47;;;;;;;27.42;4.93;;;;;;;;;;5027178;28;20230;-70
2024/01/02 08:19:14;;;;;;;19.98;4.10;;;;;;;;;;5028459;28;20189;-70
2024/01/02 08:21:39;;;;;;;31.23;5.28;;;;;;;;;;5023305;28;20185;-70
2024/01/02 08:24:05;;;;;;;21.10;4.50;;;;;;;;;;5028871;28;20185;-69
2024/01/02 08:26:31;;;;;;;17.98;4.32;;;;;;;;;;5028498;28;20191;-69
2024/01/02 08:28:56;;;;;;;32.80;5.38;;;;;;;;;;5011775;28;20174;-70
2024/01/02 08:31:22;;;;;;;25.80;4.93;;;;;;;;;;5028700;28;20181;-70
2024/01/02 08:33:47;;;;;;;26.42;5.07;;;;;;;;;;5032452;28;20171;-70
2024/01/02 08:36:12;;;;;;;23.92;4.80;;;;;;;;;;5015232;28;20252;-70
2024/01/02 08:38:38;;;;;;;16.95;3.95;;;;;;;;;;5014456;28;20564;-69
2024/01/02 08:41:03;;;;;;;15.60;4.22;;;;;;;;;;5032487;28;20216;-70
2024/01/02 08:43:28;;;;;;;16.75;3.85;;;;;;;;;;5030732;28;20206;-69
2024/01/02 08:45:53;;;;;;;25.95;4.03;;;;;;;;;;5032307;28;20212;-70
2024/01/02 08:48:18;;;;;;;20.63;4.85;;;;;;;;;;5029304;28;20257;-70
2024/01/02 08:50:44;;;;;;;26.83;4.00;;;;;;;;;;5012737;28;20327;-69
2024/01/02 08:53:10;;;;;;;31.10;4.95;;;;;;;;;;5028255;28;20186;-70
2024/01/02 08:55:35;;;;;;;17.20;3.22;;;;;;;;;;5026173;28;20217;-70
2024/01/02 08:58:01;;;;;;;27.50;5.40;;;;;;;;;;5032343;28;20174;-69
2024/01/02 09:00:27;;;;;;;18.77;4.47;;;;;;;;;;5029950;28;20629;-70
2024/01/02 09:02:52;;;;;;;16.20;4.20;;;;;;;;;;5032799;28;20495;-70
2024/01/02 09:05:17;;;;;;;24.25;5.35;;;;;;;;;;5030334;28;20205;-70
2024/01/02 09:07:42;;;;;;;24.05;4.63;;;;;;;;;;5027313;28;20190;-70
2024/01/02 09:10:08;;;;;;;20.25;3.90;;;;;;;;;;5028060;28;20668;-70
2024/01/02 09:12:34;;;;;;;23.15;5.95;;;;;;;;;;5013255;28;20202;-70
2024/01/02 09:14:59;;;;;;;32.80;6.50;;;;;;;;;;5011831;28;20689;-69
2024/01/02 09:17:24;;;;;;;30.35;5.97;;;;;;;;;;5030482;28;20179;-69
2024/01/02 09:19:49;;;;;;;26.30;6.10;;;;;;;;;;5027896;28;20190;-69
2024/01/02 09:22:14;;;;;;;23.40;5.28;;;;;;;;;;5010869;28;20194;-69
2024/01/02 09:24:40;;;;;;;31.55;5.53;;;;;;;;;;5031830;28;20197;-69
2024/01/02 09:27:06;;;;;;;24.40;6.00;;;;;;;;;;5035696;28;20770;-69
2024/01/02 09:29:31;;;;;;;25.52;5.68;;;;;;;;;;5034462;28;20186;-69
2024/01/02 09:31:57;;;;;;;20.15;4.65;;;;;;;;;;5031346;28;20256;-69
2024/01/02 09:34:22;;;;;;;25.48;4.95;;;;;;;;;;5033929;28;20174;-69
2024/01/02 09:36:49;;;;;;;25.63;5.00;;;;;;;;;;5030891;28;20252;-69
2024/01/02 09:39:14;;;;;;;38.83;7.32;;;;;;;;;;5012769;28;20193;-69
2024/01/02 09:42:00;;;;;;;24.30;5.35;;;;;;;;;;5011178;28;20245;-69
2024/01/02 09:44:49;;;;;;;25.25;5.40;;;;;;;;;;5029338;28;21220;-69
2024/01/02 09:47:26;;;;;;;17.67;4.90;;;;;;;;;;5026379;28;20262;-69
2024/01/02 09:49:52;;;;;;;20.48;5.72;;;;;;;;;;5029801;28;20811;-69
2024/01/02 09:52:33;;;;;;;23.20;4.63;;;;;;;;;;5014856;28;20237;-69
2024/01/02 09:55:17;;;;;;;26.10;6.38;;;;;;;;;;5033498;28;20788;-69
2024/01/02 09:57:42;;;;;;;20.83;5.45;;;;;;;;;;5033673;28;20178;-69
2024/01/02 10:00:07;;;;;;;25.40;5.25;;;;;;;;;;5028879;28;20664;-69
2024/01/02 10:02:51;;;;;;;20.45;4.63;;;;;;;;;;5028339;28;20225;-69
2024/01/02 10:05:23;;;;;;;20.35;4.60;;;;;;;;;;5026832;28;20230;-69
2024/01/02 10:08:08;;;;;;;23.73;5.50;;;;;;;;;;5028285;28;20182;-69
2024/01/02 10:10:43;;;;;;;14.75;4.05;;;;;;;;;;5023534;28;20244;-68
2024/01/02 10:13:14;;;;;;;24.88;5.57;;;;;;;;;;5029141;28;20205;-69
2024/01/02 10:15:54;;;;;;;16.80;4.82;;;;;;;;;;5028158;28;20277;-69
2024/01/02 10:18:31;;;;;;;12.77;3.70;;;;;;;;;;5028999;28;20587;-69
2024/01/02 10:20:59;;;;;;;14.43;4.57;;;;;;;;;;5027452;28;20200;-69
2024/01/02 10:23:24;;;;;;;14.88;3.53;;;;;;;;;;5027889;28;20185;-69
2024/01/02 10:25:53;;;;;;;13.18;3.55;;;;;;;;;;5028808;28;20285;-69
2024/01/02 10:28:25;;;;;;;14.98;2.97;;;;;;;;;;5028455;28;20193;-69
2024/01/02 10:30:50;;;;;;;17.77;3.55;;;;;;;;;;5027390;28;20197;-69
2024/01/02 10:33:37;;;;;;;9.55;2.90;;;;;;;;;;5026352;28;20190;-70
2024/01/02 10:36:03;;;;;;;8.13;3.00;;;;;;;;;;5008630;28;20669;-69
2024/01/02 10:38:47;;;;;;;9.43;2.63;;;;;;;;;;5028140;28;21686;-69
2024/01/02 10:41:16;;;;;;;8.75;3.17;;;;;;;;;;5026990;28;20634;-69
2024/01/02 10:43:52;;;;;;;5.43;2.25;;;;;;;;;;5010847;28;20179;-70
2024/01/02 10:46:33;;;;;;;6.50;2.45;;;;;;;;;;5024984;28;20198;-70
2024/01/02 10:48:59;;;;;;;7.82;2.30;;;;;;;;;;5026882;28;20190;-70
2024/01/02 10:51:33;;;;;;;8.18;2.78;;;;;;;;;;5025372;28;20187;-69
2024/01/02 10:54:05;;;;;;;4.60;2.25;;;;;;;;;;5028714;28;20646;-69
2024/01/02 10:56:37;;;;;;;7.47;2.67;;;;;;;;;;5011131;28;20325;-70
2024/01/02 10:59:18;;;;;;;9.48;2.75;;;;;;;;;;5028795;28;20261;-69
2024/01/02 11:01:45;;;;;;;4.80;2.53;;;;;;;;;;5026189;28;20193;-69
2024/01/02 11:04:33;;;;;;;7.15;3.38;;;;;;;;;;5029687;28;20178;-69
2024/01/02 11:07:06;;;;;;;8.88;3.50;;;;;;;;;;5023712;28;20202;-70
2024/01/02 11:09:47;;;;;;;5.15;3.42;;;;;;;;;;5010167;28;20178;-69
2024/01/02 11:12:12;;;;;;;5.07;3.45;;;;;;;;;;5023594;28;20195;-69
2024/01/02 11:14:40;;;;;;;6.43;4.22;;;;;;;;;;5027126;28;20177;-69
2024/01/02 11:17:06;;;;;;;5.38;4.13;;;;;;;;;;5026226;28;20287;-69
2024/01/02 11:19:34;;;;;;;7.45;4.25;;;;;;;;;;5025825;28;20646;-69
2024/01/02 11:22:08;;;;;;;5.70;3.88;;;;;;;;;;5016054;28;20217;-70
2024/01/02 11:24:34;;;;;;;7.00;4.45;;;;;;;;;;5022344;28;20197;-69
2024/01/02 11:27:00;;;;;;;10.88;5.55;;;;;;;;;;5025685;28;20202;-70
2024/01/02 11:29:28;;;;;;;7.32;4.68;;;;;;;;;;5022730;28;20182;-70
2024/01/02 11:31:54;;;;;;;5.85;4.40;;;;;;;;;;5006397;28;20686;-70
2024/01/02 11:34:30;;;;;;;5.85;4.88;;;;;;;;;;5026789;28;20187;-70
2024/01/02 11:37:07;;;;;;;6.97;4.82;;;;;;;;;;5022919;28;20242;-70
2024/01/02 11:39:41;;;;;;;6.18;4.90;;;;;;;;;;5021933;28;20580;-68
2024/01/02 11:42:16;;;;;;;8.10;5.43;;;;;;;;;;5024277;28;20558;-71
2024/01/02 11:44:56;;;;;;;5.75;4.63;;;;;;;;;;5024138;28;20277;-69
2024/01/02 11:47:27;;;;;;;6.10;4.30;;;;;;;;;;5019105;28;20269;-68
2024/01/02 11:49:57;;;;;;;4.53;3.92;;;;;;;;;;5027142;28;20200;-69
2024/01/02 11:52:23;;;;;;;3.47;2.85;;;;;;;;;;5006305;28;20755;-69
2024/01/02 11:55:12;;;;;;;3.50;2.70;;;;;;;;;;5025501;28;20178;-69
2024/01/02 11:57:51;;;;;;;2.83;2.53;;;;;;;;;;5025966;28;20724;-69
2024/01/02 12:00:22;;;;;;;1.90;1.65;;;;;;;;;;5027233;28;20181;-69
2024/01/02 12:03:06;;;;;;;2.40;2.10;;;;;;;;;;5024203;28;20684;-69
2024/01/02 12:05:37;;;;;;;2.75;1.95;;;;;;;;;;5024191;28;20218;-69
2024/01/02 12:08:03;;;;;;;1.95;1.48;;;;;;;;;;5022589;28;20182;-69
2024/01/02 12:10:32;;;;;;;2.03;1.42;;;;;;;;;;5009773;28;20182;-69
2024/01/02 12:13:11;;;;;;;1.55;1.10;;;;;;;;;;5026431;28;20194;-70
2024/01/02 12:15:49;;;;;;;1.08;0.88;;;;;;;;;;5008042;28;20202;-69
2024/01/02 12:18:15;;;;;;;1.60;1.08;;;;;;;;;;5027347;28;20693;-69
2024/01/02 12:20:46;;;;;;;1.00;0.75;;;;;;;;;;5027234;28;20186;-69
2024/01/02 12:23:11;;;;;;;0.60;0.60;;;;;;;;;;5024943;28;20182;-69
2024/01/02 12:25:39;;;;;;;1.98;0.68;;;;;;;;;;5027436;28;20248;-70
2024/01/02 12:28:04;;;;;;;0.65;0.60;;;;;;;;;;5022354;28;20261;-69
2024/01/02 12:30:30;;;;;;;0.60;0.50;;;;;;;;;;5009385;28;20273;-69
2024/01/02 12:33:14;;;;;;;0.98;0.40;;;;;;;;;;5025970;28;20248;-69
2024/01/02 12:35:39;;;;;;;0.63;0.30;;;;;;;;;;5027394;28;20719;-69
2024/01/02 12:38:07;;;;;;;0.40;0.40;;;;;;;;;;5024273;28;20191;-70
2024/01/02 12:40:34;;;;;;;0.60;0.60;;;;;;;;;;5024485;28;20199;-70
2024/01/02 12:42:59;;;;;;;0.80;0.57;;;;;;;;;;5025165;28;20186;-69
2024/01/02 12:45:28;;;;;;;0.75;0.50;;;;;;;;;;5011090;28;20264;-70
2024/01/02 12:47:55;;;;;;;0.80;0.80;;;;;;;;;;5025036;28;20205;-69
2024/01/02 12:50:21;;;;;;;0.77;0.77;;;;;;;;;;5026576;28;20186;-70
2024/01/02 12:52:53;;;;;;;1.73;1.20;;;;;;;;;;5025075;28;20692;-70
2024/01/02 12:55:20;;;;;;;1.98;1.20;;;;;;;;;;5026913;28;20210;-69
2024/01/02 12:57:46;;;;;;;1.35;1.00;;;;;;;;;;5024098;28;20261;-69
2024/01/02 13:00:12;;;;;;;1.42;1.08;;;;;;;;;;5020863;28;20254;-69
2024/01/02 13:02:38;;;;;;;1.90;1.40;;;;;;;;;;5026494;28;20175;-69
2024/01/02 13:05:03;;;;;;;1.38;1.25;;;;;;;;;;5022813;28;20300;-70
2024/01/02 13:07:30;;;;;;;1.52;1.08;;;;;;;;;;5025486;28;20568;-70
2024/01/02 13:09:56;;;;;;;1.38;1.00;;;;;;;;;;5025271;28;20656;-70
2024/01/02 13:12:23;;;;;;;1.48;1.10;;;;;;;;;;5026205;28;20288;-70
2024/01/02 13:14:48;;;;;;;1.10;0.80;;;;;;;;;;5026489;28;20174;-70
2024/01/02 13:17:14;;;;;;;1.38;1.02;;;;;;;;;;5025609;28;20220;-70
2024/01/02 13:19:41;;;;;;;1.08;0.82;;;;;;;;;;5010962;28;20676;-70
2024/01/02 13:22:06;;;;;;;1.35;0.85;;;;;;;;;;5009689;28;20202;-70
2024/01/02 13:24:57;;;;;;;0.90;0.85;;;;;;;;;;5030329;28;20182;-70
2024/01/02 13:27:23;;;;;;;1.48;0.65;;;;;;;;;;5024128;28;20190;-70
2024/01/02 13:29:49;;;;;;;0.70;0.70;;;;;;;;;;5026750;28;20204;-70
2024/01/02 13:32:14;;;;;;;1.52;0.98;;;;;;;;;;5010707;28;20674;-70
2024/01/02 13:34:39;;;;;;;1.00;0.60;;;;;;;;;;5028056;28;20619;-70
2024/01/02 13:37:05;;;;;;;0.95;0.68;;;;;;;;;;5026939;28;20256;-70
2024/01/02 13:39:31;;;;;;;1.27;1.17;;;;;;;;;;5023161;28;20277;-70
2024/01/02 13:41:56;;;;;;;2.55;0.80;;;;;;;;;;5024508;28;20281;-70
2024/01/02 13:44:21;;;;;;;1.38;0.88;;;;;;;;;;5023122;28;20261;-70
2024/01/02 13:46:48;;;;;;;0.80;0.80;;;;;;;;;;5013560;28;20755;-69
2024/01/02 13:49:13;;;;;;;1.83;1.10;;;;;;;;;;5026476;28;20601;-69
2024/01/02 13:51:44;;;;;;;1.27;0.77;;;;;;;;;;5030180;28;20565;-69
2024/01/02 13:54:09;;;;;;;0.95;0.88;;;;;;;;;;5028447;28;20232;-70
2024/01/02 13:56:35;;;;;;;1.15;1.05;;;;;;;;;;5026386;28;20194;-70
2024/01/02 13:59:05;;;;;;;1.40;1.00;;;;;;;;;;5010621;28;20683;-70
2024/01/02 14:01:34;;;;;;;1.10;1.00;;;;;;;;;;5029904;28;20184;-69
2024/01/02 14:04:00;;;;;;;1.20;1.10;;;;;;;;;;5024461;28;20198;-69
2024/01/02 14:06:26;;;;;;;1.05;0.95;;;;;;;;;;5024499;28;20206;-67
2024/01/02 14:09:07;;;;;;;1.25;1.00;;;;;;;;;;5028820;28;20236;-67
2024/01/02 14:11:32;;;;;;;1.40;1.30;;;;;;;;;;5028309;28;20209;-67
2024/01/02 14:14:05;;;;;;;1.95;1.23;;;;;;;;;;5027733;28;20178;-67
2024/01/02 14:16:30;;;;;;;1.58;1.20;;;;;;;;;;5027626;28;20194;-68
2024/01/02 14:18:55;;;;;;;1.75;1.30;;;;;;;;;;5017419;28;20645;-69
2024/01/02 14:21:23;;;;;;;1.60;1.48;;;;;;;;;;5010489;28;20202;-69
2024/01/02 14:24:01;;;;;;;2.00;1.80;;;;;;;;;;5029773;28;20669;-69
2024/01/02 14:26:29;;;;;;;2.38;2.03;;;;;;;;;;5027347;28;20296;-69
2024/01/02 14:28:58;;;;;;;2.83;2.53;;;;;;;;;;5025648;28;20175;-69
2024/01/02 14:31:32;;;;;;;2.45;2.25;;;;;;;;;;5027931;28;20182;-69
2024/01/02 14:34:10;;;;;;;7.80;2.50;;;;;;;;;;5028350;28;20181;-69
2024/01/02 14:36:38;;;;;;;3.00;2.67;;;;;;;;;;5009990;28;20247;-69
2024/01/02 14:39:22;;;;;;;3.33;2.60;;;;;;;;;;5020971;28;20189;-69